Saga Morus — VRZQ8 — position and weather

sailwx.info

Track history (hours):
 
Tides and Currents Weather Stations Pressure Air Temp Water Temp Dewpoint Dewpoint Depression Visibility Wind Speed Wind Dir Waves Ship Positions

Saga Morus

Last reported at 2018-Jan-10 20:43 UTC. Time now 2018-Feb-20 13:46 UTC.
Position N 01°25' E 103°14'.
Warning: this ship's position is 40 days out of date.

Length 200 m; draft 7.5 m.

Type: Cargo ship. MMSI: 477283000.

Date/timePositionNaut miles runAvg speedWind from/ knotsBaromVisibWave heightAir tempDewpointWater temp
2018-Jan-10 20:43N 01°25' E 103°14'312.5
2018-Jan-10 20:29N 01°23' E 103°16'712.5
2018-Jan-10 19:57N 01°18' E 103°20'613.0
2018-Jan-10 19:30N 01°14' E 103°25'713.5
2018-Jan-10 19:00N 01°12' E 103°31'714.2
2018-Jan-10 18:30N 01°11' E 103°38'612.8
2018-Jan-10 18:01N 01°08' E 103°44'713.5
2018-Jan-10 17:30N 01°11' E 103°50'713.2
2018-Jan-10 17:01N 01°14' E 103°56'3 6.0
2018-Jan-10 16:30N 01°17' E 103°57'0 0.0
2018-Jan-10 11:05N 01°17' E 103°57'0 0.0
2018-Jan-10 10:56N 01°17' E 103°57'0 0.0
2018-Jan-10 10:26N 01°17' E 103°57'0 0.0
2018-Jan-10 02:58N 01°17' E 103°57'1 2.4
2018-Jan-10 02:30N 01°16' E 103°58'3 5.8
2018-Jan-10 01:59N 01°16' E 104°01'5 9.5
2018-Jan-10 01:30N 01°16' E 104°05'812.1
2018-Jan-10 00:52N 01°17' E 104°13'513.0
2018-Jan-10 00:30N 01°19' E 104°17'  
2018-Jan-04 22:54N 24°07' E 118°57'45410.9
2018-Jan-03 05:21N 30°59' E 122°32'512.3
2018-Jan-03 04:57N 31°00' E 122°26'512.5
2018-Jan-03 04:30N 31°02' E 122°20'612.0
2018-Jan-03 04:00N 31°03' E 122°13'510.5
2018-Jan-03 03:30N 31°03' E 122°07'4 7.8
2018-Jan-03 03:00N 31°04' E 122°02'4 7.2
2018-Jan-03 02:30N 31°06' E 121°58'5 9.7
2018-Jan-03 02:00N 31°09' E 121°54'510.5
2018-Jan-03 01:30N 31°12' E 121°49'912.6
2018-Jan-03 00:48N 31°19' E 121°42'510.9
2018-Jan-03 00:22N 31°22' E 121°38'411.2
2018-Jan-02 23:59N 31°24' E 121°34'5 9.9
2018-Jan-02 23:30N 31°26' E 121°29'510.6
2018-Jan-02 23:00N 31°30' E 121°25'611.3
2018-Jan-02 22:30N 31°33' E 121°19'3 6.3
2018-Jan-02 22:00N 31°36' E 121°18'0 0.2
2018-Jan-02 21:30N 31°36' E 121°18'0 0.1
2018-Jan-02 21:00N 31°36' E 121°18'0 0.1
2018-Jan-02 20:30N 31°36' E 121°18'0 0.1
2018-Jan-02 20:00N 31°36' E 121°18'1 1.3
2018-Jan-02 19:30N 31°36' E 121°17'510.5
2018-Jan-02 19:00N 31°40' E 121°12'510.3
2018-Jan-02 18:30N 31°43' E 121°08'4 8.6
2018-Jan-02 18:00N 31°45' E 121°04'5 9.2
2018-Jan-02 17:30N 31°47' E 120°58'  
Track history (hours):
 
Tides and Currents Weather Stations Pressure Air Temp Water Temp Dewpoint Dewpoint Depression Visibility Wind Speed Wind Dir Waves Ship Positions

Saga Morus

Last reported at 2018-Jan-10 20:43 UTC. Time now 2018-Feb-20 13:46 UTC.
Position N 01°25' E 103°14'.
Warning: this ship's position is 40 days out of date.

Length 200 m; draft 7.5 m.

Type: Cargo ship. MMSI: 477283000.

Date/timePositionNaut miles runAvg speedWind from/ knotsBaromVisibWave heightAir tempDewpointWater temp
2018-Jan-10 20:43N 01°25' E 103°14'312.5
2018-Jan-10 20:29N 01°23' E 103°16'712.5
2018-Jan-10 19:57N 01°18' E 103°20'613.0
2018-Jan-10 19:30N 01°14' E 103°25'713.5
2018-Jan-10 19:00N 01°12' E 103°31'714.2
2018-Jan-10 18:30N 01°11' E 103°38'612.8
2018-Jan-10 18:01N 01°08' E 103°44'713.5
2018-Jan-10 17:30N 01°11' E 103°50'713.2
2018-Jan-10 17:01N 01°14' E 103°56'3 6.0
2018-Jan-10 16:30N 01°17' E 103°57'0 0.0
2018-Jan-10 11:05N 01°17' E 103°57'0 0.0
2018-Jan-10 10:56N 01°17' E 103°57'0 0.0
2018-Jan-10 10:26N 01°17' E 103°57'0 0.0
2018-Jan-10 02:58N 01°17' E 103°57'1 2.4
2018-Jan-10 02:30N 01°16' E 103°58'3 5.8
2018-Jan-10 01:59N 01°16' E 104°01'5 9.5
2018-Jan-10 01:30N 01°16' E 104°05'812.1
2018-Jan-10 00:52N 01°17' E 104°13'513.0
2018-Jan-10 00:30N 01°19' E 104°17'  
2018-Jan-04 22:54N 24°07' E 118°57'45410.9
2018-Jan-03 05:21N 30°59' E 122°32'512.3
2018-Jan-03 04:57N 31°00' E 122°26'512.5
2018-Jan-03 04:30N 31°02' E 122°20'612.0
2018-Jan-03 04:00N 31°03' E 122°13'510.5
2018-Jan-03 03:30N 31°03' E 122°07'4 7.8
2018-Jan-03 03:00N 31°04' E 122°02'4 7.2
2018-Jan-03 02:30N 31°06' E 121°58'5 9.7
2018-Jan-03 02:00N 31°09' E 121°54'510.5
2018-Jan-03 01:30N 31°12' E 121°49'912.6
2018-Jan-03 00:48N 31°19' E 121°42'510.9
2018-Jan-03 00:22N 31°22' E 121°38'411.2
2018-Jan-02 23:59N 31°24' E 121°34'5 9.9
2018-Jan-02 23:30N 31°26' E 121°29'510.6
2018-Jan-02 23:00N 31°30' E 121°25'611.3
2018-Jan-02 22:30N 31°33' E 121°19'3 6.3
2018-Jan-02 22:00N 31°36' E 121°18'0 0.2
2018-Jan-02 21:30N 31°36' E 121°18'0 0.1
2018-Jan-02 21:00N 31°36' E 121°18'0 0.1
2018-Jan-02 20:30N 31°36' E 121°18'0 0.1
2018-Jan-02 20:00N 31°36' E 121°18'1 1.3
2018-Jan-02 19:30N 31°36' E 121°17'510.5
2018-Jan-02 19:00N 31°40' E 121°12'510.3
2018-Jan-02 18:30N 31°43' E 121°08'4 8.6
2018-Jan-02 18:00N 31°45' E 121°04'5 9.2
2018-Jan-02 17:30N 31°47' E 120°58'  

Dump ship's entire track history